Stena Europe — VSTA3 — position and weather

sailwx.info

Track history (hours):
 
Tides and Currents Weather Stations Pressure Air Temp Water Temp Dewpoint Dewpoint Depression Visibility Wind Speed Wind Dir Waves Ship Positions

Stena Europe

Operator: Stena Line

Last reported at 2020-Jul-14 07:00 UTC. Time now 2020-Jul-14 12:23 UTC.
Position N 52°15' W 006°18'.

Length 149 m; draft 6.1 m.

Type: Passenger vessel. MMSI: 235004539.

Date/timePositionNaut miles runAvg speedWind from/ knotsBaromVisibWave heightAir tempDewpointWater temp
2020-Jul-14 07:00N 52°15' W 006°18'2 2.9
2020-Jul-14 06:26N 52°15' W 006°20'0 0.0
2020-Jul-14 04:59N 52°15' W 006°20'0 0.0
2020-Jul-14 03:30N 52°15' W 006°20'3 3.0
2020-Jul-14 02:31N 52°14' W 006°16'1413.7
2020-Jul-14 01:30N 52°12' W 005°53'1110.8
2020-Jul-14 00:30N 52°09' W 005°37'15 2.3
2020-Jul-13 18:00N 52°12' W 006°01'1212.2
2020-Jul-13 17:00N 52°15' W 006°20'18 1.9
2020-Jul-13 08:00N 52°11' W 005°53'18 3.5
2020-Jul-13 03:01N 52°15' W 006°20'26 3.2
2020-Jul-12 18:40N 52°09' W 005°39'315.8
2020-Jul-12 18:27N 52°10' W 005°44'9 2.2
2020-Jul-12 14:30N 52°12' W 005°58'1918.1
2020-Jul-12 13:29N 52°07' W 005°28'1616.0
2020-Jul-12 12:29N 52°03' W 005°03'38 7.6
2020-Jul-12 07:31N 52°12' W 006°03'11 4.3
2020-Jul-12 05:00N 52°15' W 006°20'18 5.1
2020-Jul-12 01:30N 52°11' W 005°52'15 2.3
2020-Jul-11 19:00N 52°06' W 005°30'32 9.3
2020-Jul-11 15:30N 52°15' W 006°20'2814.3
2020-Jul-11 13:30N 52°08' W 005°35'11 2.1
2020-Jul-11 08:00N 52°11' W 005°53'17 3.8
2020-Jul-11 03:31N 52°15' W 006°20'0 0.0
2020-Jul-11 03:01N 52°15' W 006°20'2 4.6
2020-Jul-11 02:31N 52°15' W 006°17'815.8
2020-Jul-11 02:01N 52°13' W 006°04'1515.3
2020-Jul-11 01:00N 52°09' W 005°40'2 0.3
2020-Jul-10 18:38N 52°10' W 005°43'23 8.9
2020-Jul-10 16:00N 52°15' W 006°20'8 8.0
2020-Jul-10 15:00N 52°13' W 006°08'8 0.9
2020-Jul-10 06:31N 52°15' W 006°20'0 0.0
2020-Jul-10 06:01N 52°15' W 006°20'0 0.0
2020-Jul-10 05:30N 52°15' W 006°20'3 1.1
2020-Jul-10 02:30N 52°14' W 006°15'817.0
2020-Jul-10 02:00N 52°13' W 006°02'714.8
2020-Jul-10 01:30N 52°12' W 005°50'612.4
2020-Jul-10 01:00N 52°08' W 005°41'912.9
2020-Jul-10 00:19N 52°08' W 005°27'33 4.0
2020-Jul-09 15:53N 52°15' W 006°20'1 0.1
2020-Jul-09 06:56N 52°15' W 006°18'5 0.4
2020-Jul-08 17:30N 52°14' W 006°11'611.6
2020-Jul-08 17:00N 52°15' W 006°20'0 0.0
2020-Jul-08 15:30N 52°15' W 006°20'2214.7
2020-Jul-08 14:00N 52°09' W 005°46'22 2.6
2020-Jul-08 05:31N 52°15' W 006°20'8 3.3
2020-Jul-08 03:00N 52°13' W 006°07'1 0.2
2020-Jul-07 18:30N 52°13' W 006°05'10 3.9
2020-Jul-07 16:00N 52°15' W 006°20'1313.5
2020-Jul-07 15:00N 52°11' W 005°59'1 0.2
2020-Jul-07 07:30N 52°12' W 006°01'12 6.3
2020-Jul-07 05:31N 52°15' W 006°20'0 0.0
2020-Jul-07 05:01N 52°15' W 006°20'0 0.0
2020-Jul-07 03:31N 52°15' W 006°20'0 0.0
2020-Jul-07 03:01N 52°15' W 006°20'32 4.0
2020-Jul-06 19:00N 52°08' W 005°30'1215.4
2020-Jul-06 18:13N 52°10' W 005°50'1115.5
2020-Jul-06 17:31N 52°13' W 006°07'816.7
2020-Jul-06 17:00N 52°16' W 006°20'0 0.1
2020-Jul-06 12:00N 52°15' W 006°20'0 0.0
2020-Jul-06 11:00N 52°15' W 006°20'0 0.0
2020-Jul-06 10:00N 52°15' W 006°20'0 0.0
2020-Jul-06 09:30N 52°15' W 006°20'0 0.0
2020-Jul-06 08:30N 52°15' W 006°20'0 0.0
2020-Jul-06 08:00N 52°15' W 006°20'0 0.0
2020-Jul-06 04:30N 52°15' W 006°20'0 0.0
2020-Jul-06 03:00N 52°15' W 006°20'3 6.8
2020-Jul-06 02:30N 52°14' W 006°15'1413.6
2020-Jul-06 01:30N 52°11' W 005°53'17 1.8
2020-Jul-05 16:00N 52°15' W 006°20'2 4.7
2020-Jul-05 15:30N 52°15' W 006°17'2 0.2
2020-Jul-05 05:30N 52°15' W 006°20'0 0.0
2020-Jul-05 04:00N 52°15' W 006°20'1 1.5
2020-Jul-05 03:00N 52°15' W 006°18'1515.4
2020-Jul-05 02:00N 52°17' W 005°53'7 1.2
2020-Jul-04 20:00N 52°11' W 005°47'917.9
2020-Jul-04 19:30N 52°12' W 006°01'1212.1
2020-Jul-04 18:30N 52°15' W 006°20'  
Track history (hours):
 
Tides and Currents Weather Stations Pressure Air Temp Water Temp Dewpoint Dewpoint Depression Visibility Wind Speed Wind Dir Waves Ship Positions

Stena Europe

Operator: Stena Line

Last reported at 2020-Jul-14 07:00 UTC. Time now 2020-Jul-14 12:23 UTC.
Position N 52°15' W 006°18'.

Length 149 m; draft 6.1 m.

Type: Passenger vessel. MMSI: 235004539.

Date/timePositionNaut miles runAvg speedWind from/ knotsBaromVisibWave heightAir tempDewpointWater temp
2020-Jul-14 07:00N 52°15' W 006°18'2 2.9
2020-Jul-14 06:26N 52°15' W 006°20'0 0.0
2020-Jul-14 04:59N 52°15' W 006°20'0 0.0
2020-Jul-14 03:30N 52°15' W 006°20'3 3.0
2020-Jul-14 02:31N 52°14' W 006°16'1413.7
2020-Jul-14 01:30N 52°12' W 005°53'1110.8
2020-Jul-14 00:30N 52°09' W 005°37'15 2.3
2020-Jul-13 18:00N 52°12' W 006°01'1212.2
2020-Jul-13 17:00N 52°15' W 006°20'18 1.9
2020-Jul-13 08:00N 52°11' W 005°53'18 3.5
2020-Jul-13 03:01N 52°15' W 006°20'26 3.2
2020-Jul-12 18:40N 52°09' W 005°39'315.8
2020-Jul-12 18:27N 52°10' W 005°44'9 2.2
2020-Jul-12 14:30N 52°12' W 005°58'1918.1
2020-Jul-12 13:29N 52°07' W 005°28'1616.0
2020-Jul-12 12:29N 52°03' W 005°03'38 7.6
2020-Jul-12 07:31N 52°12' W 006°03'11 4.3
2020-Jul-12 05:00N 52°15' W 006°20'18 5.1
2020-Jul-12 01:30N 52°11' W 005°52'15 2.3
2020-Jul-11 19:00N 52°06' W 005°30'32 9.3
2020-Jul-11 15:30N 52°15' W 006°20'2814.3
2020-Jul-11 13:30N 52°08' W 005°35'11 2.1
2020-Jul-11 08:00N 52°11' W 005°53'17 3.8
2020-Jul-11 03:31N 52°15' W 006°20'0 0.0
2020-Jul-11 03:01N 52°15' W 006°20'2 4.6
2020-Jul-11 02:31N 52°15' W 006°17'815.8
2020-Jul-11 02:01N 52°13' W 006°04'1515.3
2020-Jul-11 01:00N 52°09' W 005°40'2 0.3
2020-Jul-10 18:38N 52°10' W 005°43'23 8.9
2020-Jul-10 16:00N 52°15' W 006°20'8 8.0
2020-Jul-10 15:00N 52°13' W 006°08'8 0.9
2020-Jul-10 06:31N 52°15' W 006°20'0 0.0
2020-Jul-10 06:01N 52°15' W 006°20'0 0.0
2020-Jul-10 05:30N 52°15' W 006°20'3 1.1
2020-Jul-10 02:30N 52°14' W 006°15'817.0
2020-Jul-10 02:00N 52°13' W 006°02'714.8
2020-Jul-10 01:30N 52°12' W 005°50'612.4
2020-Jul-10 01:00N 52°08' W 005°41'912.9
2020-Jul-10 00:19N 52°08' W 005°27'33 4.0
2020-Jul-09 15:53N 52°15' W 006°20'1 0.1
2020-Jul-09 06:56N 52°15' W 006°18'5 0.4
2020-Jul-08 17:30N 52°14' W 006°11'611.6
2020-Jul-08 17:00N 52°15' W 006°20'0 0.0
2020-Jul-08 15:30N 52°15' W 006°20'2214.7
2020-Jul-08 14:00N 52°09' W 005°46'22 2.6
2020-Jul-08 05:31N 52°15' W 006°20'8 3.3
2020-Jul-08 03:00N 52°13' W 006°07'1 0.2
2020-Jul-07 18:30N 52°13' W 006°05'10 3.9
2020-Jul-07 16:00N 52°15' W 006°20'1313.5
2020-Jul-07 15:00N 52°11' W 005°59'1 0.2
2020-Jul-07 07:30N 52°12' W 006°01'12 6.3
2020-Jul-07 05:31N 52°15' W 006°20'0 0.0
2020-Jul-07 05:01N 52°15' W 006°20'0 0.0
2020-Jul-07 03:31N 52°15' W 006°20'0 0.0
2020-Jul-07 03:01N 52°15' W 006°20'32 4.0
2020-Jul-06 19:00N 52°08' W 005°30'1215.4
2020-Jul-06 18:13N 52°10' W 005°50'1115.5
2020-Jul-06 17:31N 52°13' W 006°07'816.7
2020-Jul-06 17:00N 52°16' W 006°20'0 0.1
2020-Jul-06 12:00N 52°15' W 006°20'0 0.0
2020-Jul-06 11:00N 52°15' W 006°20'0 0.0
2020-Jul-06 10:00N 52°15' W 006°20'0 0.0
2020-Jul-06 09:30N 52°15' W 006°20'0 0.0
2020-Jul-06 08:30N 52°15' W 006°20'0 0.0
2020-Jul-06 08:00N 52°15' W 006°20'0 0.0
2020-Jul-06 04:30N 52°15' W 006°20'0 0.0
2020-Jul-06 03:00N 52°15' W 006°20'3 6.8
2020-Jul-06 02:30N 52°14' W 006°15'1413.6
2020-Jul-06 01:30N 52°11' W 005°53'17 1.8
2020-Jul-05 16:00N 52°15' W 006°20'2 4.7
2020-Jul-05 15:30N 52°15' W 006°17'2 0.2
2020-Jul-05 05:30N 52°15' W 006°20'0 0.0
2020-Jul-05 04:00N 52°15' W 006°20'1 1.5
2020-Jul-05 03:00N 52°15' W 006°18'1515.4
2020-Jul-05 02:00N 52°17' W 005°53'7 1.2
2020-Jul-04 20:00N 52°11' W 005°47'917.9
2020-Jul-04 19:30N 52°12' W 006°01'1212.1
2020-Jul-04 18:30N 52°15' W 006°20'  

Dump ship's entire track history